Time,TemperatureF,DewpointF,PressureIn,WindDirection,WindDirectionDegrees,WindSpeedMPH,WindSpeedGustMPH,Humidity,HourlyPrecipIn,Conditions,Clouds,dailyrainin,SoftwareType,DateUTC
2013-02-11 00:02:00,60.0,58.0,29.95,SE,139,4.0,-999.0,94,-99.99,,,0.00,,2013-02-11 06:02:00,
2013-02-11 00:11:00,60.0,58.0,29.95,SE,139,4.0,-999.0,94,-99.99,,,0.00,,2013-02-11 06:11:00,
2013-02-11 00:21:00,61.0,59.0,29.97,South,187,4.0,-999.0,94,-99.99,,,0.00,,2013-02-11 06:21:00,
2013-02-11 00:32:00,60.0,58.0,29.96,SE,124,1.0,-999.0,93,-99.99,,,0.00,,2013-02-11 06:32:00,
2013-02-11 00:42:00,60.0,58.0,29.97,SE,124,0.0,-999.0,94,-99.99,,,0.00,,2013-02-11 06:42:00,
2013-02-11 00:51:00,60.0,58.0,29.97,SE,124,0.0,-999.0,94,-99.99,,,0.00,,2013-02-11 06:51:00,
2013-02-11 01:01:00,59.0,58.0,29.98,SE,124,0.0,-999.0,95,-99.99,,,0.00,,2013-02-11 07:01:00,
2013-02-11 01:11:00,59.0,58.0,29.99,SE,124,0.0,-999.0,96,-99.99,,,0.00,,2013-02-11 07:11:00,
2013-02-11 01:21:00,59.0,58.0,29.99,SE,124,0.0,-999.0,96,-99.99,,,0.00,,2013-02-11 07:21:00,
2013-02-11 01:32:00,58.0,57.0,29.99,SE,124,0.0,-999.0,96,-99.99,,,0.00,,2013-02-11 07:32:00,
2013-02-11 01:41:00,58.0,57.0,30.00,SE,124,0.0,-999.0,97,-99.99,,,0.00,,2013-02-11 07:41:00,
2013-02-11 01:52:00,58.0,57.0,30.00,SE,124,0.0,-999.0,97,-99.99,,,0.00,,2013-02-11 07:52:00,
2013-02-11 02:01:00,58.0,57.0,30.00,SE,124,0.0,-999.0,97,-99.99,,,0.00,,2013-02-11 08:01:00,
2013-02-11 02:11:00,60.0,59.0,30.01,WSW,251,1.0,-999.0,98,-99.99,,,0.01,,2013-02-11 08:11:00,
2013-02-11 02:21:00,60.0,59.0,30.01,WSW,251,1.0,-999.0,98,-99.99,,,0.01,,2013-02-11 08:21:00,
2013-02-11 02:31:00,60.0,59.0,30.01,WSW,251,0.0,-999.0,98,-99.99,,,0.02,,2013-02-11 08:31:00,
2013-02-11 02:42:00,59.0,58.0,30.01,SW,233,0.0,-999.0,98,-99.99,,,0.02,,2013-02-11 08:42:00,
2013-02-11 02:52:00,59.0,58.0,30.01,SW,233,0.0,-999.0,98,-99.99,,,0.02,,2013-02-11 08:52:00,
2013-02-11 03:01:00,59.0,58.0,30.00,SSE,162,0.0,-999.0,98,-99.99,,,0.02,,2013-02-11 09:01:00,
2013-02-11 03:12:00,59.0,58.0,30.00,SSE,162,0.0,-999.0,98,-99.99,,,0.02,,2013-02-11 09:12:00,
2013-02-11 03:21:00,59.0,58.0,30.01,SSE,162,0.0,-999.0,98,-99.99,,,0.02,,2013-02-11 09:21:00,
2013-02-11 03:31:00,59.0,58.0,30.00,SSE,162,0.0,-999.0,98,-99.99,,,0.02,,2013-02-11 09:31:00,
2013-02-11 03:41:00,59.0,58.0,30.00,SSE,162,0.0,-999.0,98,-99.99,,,0.02,,2013-02-11 09:41:00,
2013-02-11 03:52:00,59.0,58.0,29.99,WNW,290,0.0,-999.0,98,-99.99,,,0.02,,2013-02-11 09:52:00,
2013-02-11 04:01:00,59.0,58.0,29.99,WNW,289,0.0,-999.0,98,-99.99,,,0.02,,2013-02-11 10:01:00,
2013-02-11 04:11:00,59.0,58.0,29.99,WNW,289,0.0,-999.0,98,-99.99,,,0.02,,2013-02-11 10:11:00,
2013-02-11 04:21:00,58.0,57.0,30.00,WSW,256,1.0,-999.0,98,-99.99,,,0.02,,2013-02-11 10:21:00,
2013-02-11 04:31:00,58.0,57.0,30.00,WSW,256,0.0,-999.0,98,-99.99,,,0.02,,2013-02-11 10:31:00,
2013-02-11 04:42:00,58.0,57.0,30.00,WSW,256,0.0,-999.0,98,-99.99,,,0.02,,2013-02-11 10:42:00,
2013-02-11 04:51:00,58.0,57.0,30.01,WSW,256,0.0,-999.0,98,-99.99,,,0.02,,2013-02-11 10:51:00,
2013-02-11 05:01:00,57.0,56.0,30.02,WSW,256,0.0,-999.0,98,-99.99,,,0.02,,2013-02-11 11:01:00,
2013-02-11 05:11:00,57.0,56.0,30.02,WSW,256,0.0,-999.0,98,-99.99,,,0.02,,2013-02-11 11:11:00,
2013-02-11 05:22:00,58.0,57.0,30.03,West,264,1.0,-999.0,98,-99.99,,,0.02,,2013-02-11 11:22:00,
2013-02-11 05:32:00,58.0,57.0,30.03,West,264,1.0,-999.0,98,-99.99,,,0.02,,2013-02-11 11:32:00,
2013-02-11 05:42:00,56.0,55.0,30.03,West,264,0.0,-999.0,98,-99.99,,,0.02,,2013-02-11 11:42:00,
2013-02-11 05:52:00,56.0,55.0,30.03,West,264,0.0,-999.0,98,-99.99,,,0.02,,2013-02-11 11:52:00,
2013-02-11 06:03:00,56.0,55.0,30.03,West,264,0.0,-999.0,97,-99.99,,,0.02,,2013-02-11 12:03:00,
2013-02-11 06:12:00,56.0,55.0,30.03,West,264,0.0,-999.0,97,-99.99,,,0.02,,2013-02-11 12:12:00,
2013-02-11 06:22:00,56.0,55.0,30.05,WSW,238,0.0,-999.0,98,-99.99,,,0.02,,2013-02-11 12:22:00,
2013-02-11 06:32:00,56.0,55.0,30.06,West,266,2.0,-999.0,98,-99.99,,,0.02,,2013-02-11 12:32:00,
2013-02-11 06:42:00,56.0,55.0,30.06,West,266,2.0,-999.0,98,-99.99,,,0.02,,2013-02-11 12:42:00,
2013-02-11 06:52:00,56.0,55.0,30.06,West,266,2.0,-999.0,98,-99.99,,,0.02,,2013-02-11 12:52:00,
2013-02-11 07:02:00,56.0,54.0,30.05,NW,304,4.0,-999.0,93,-99.99,,,0.02,,2013-02-11 13:02:00,
2013-02-11 07:11:00,56.0,53.0,30.06,West,268,5.0,-999.0,90,-99.99,,,0.02,,2013-02-11 13:11:00,
2013-02-11 07:22:00,56.0,53.0,30.06,West,268,5.0,-999.0,90,-99.99,,,0.02,,2013-02-11 13:22:00,
2013-02-11 07:32:00,56.0,53.0,30.07,WNW,300,5.0,-999.0,90,-99.99,,,0.02,,2013-02-11 13:32:00,
2013-02-11 07:42:00,56.0,53.0,30.07,WNW,300,5.0,-999.0,90,-99.99,,,0.02,,2013-02-11 13:42:00,
2013-02-11 07:52:00,56.0,52.0,30.09,WNW,303,4.0,-999.0,87,-99.99,,,0.02,,2013-02-11 13:52:00,
2013-02-11 08:01:00,56.0,52.0,30.09,NW,312,4.0,-999.0,86,-99.99,,,0.02,,2013-02-11 14:01:00,
2013-02-11 08:11:00,56.0,52.0,30.09,NW,312,4.0,-999.0,86,-99.99,,,0.02,,2013-02-11 14:11:00,
2013-02-11 08:22:00,56.0,52.0,30.09,WNW,287,1.0,-999.0,86,-99.99,,,0.02,,2013-02-11 14:22:00,
2013-02-11 08:32:00,55.0,53.0,30.11,WNW,287,0.0,-999.0,92,-99.99,,,0.02,,2013-02-11 14:32:00,
2013-02-11 08:42:00,55.0,53.0,30.11,WNW,287,0.0,-999.0,92,-99.99,,,0.02,,2013-02-11 14:42:00,
2013-02-11 08:52:00,55.0,53.0,30.11,WNW,287,0.0,-999.0,92,-99.99,,,0.02,,2013-02-11 14:52:00,
2013-02-11 09:02:00,54.0,52.0,30.12,WNW,287,0.0,-999.0,94,-99.99,,,0.02,,2013-02-11 15:02:00,
2013-02-11 09:11:00,54.0,52.0,30.12,WNW,287,0.0,-999.0,94,-99.99,,,0.02,,2013-02-11 15:11:00,
2013-02-11 09:22:00,54.0,53.0,30.12,WNW,287,0.0,-999.0,95,-99.99,,,0.02,,2013-02-11 15:22:00,
2013-02-11 09:32:00,54.0,52.0,30.12,SSE,147,0.0,-999.0,94,-99.99,,,0.02,,2013-02-11 15:32:00,
2013-02-11 09:42:00,55.0,53.0,30.11,SSE,147,0.0,-999.0,92,-99.99,,,0.02,,2013-02-11 15:42:00,
2013-02-11 09:52:00,55.0,53.0,30.11,SSE,147,0.0,-999.0,92,-99.99,,,0.02,,2013-02-11 15:52:00,
2013-02-11 10:02:00,56.0,53.0,30.12,WNW,303,2.0,-999.0,90,-99.99,,,0.02,,2013-02-11 16:02:00,
2013-02-11 10:11:00,56.0,53.0,30.12,WNW,303,2.0,-999.0,90,-99.99,,,0.02,,2013-02-11 16:11:00,
2013-02-11 10:22:00,56.0,53.0,30.12,WNW,303,1.0,-999.0,90,-99.99,,,0.02,,2013-02-11 16:22:00,
2013-02-11 10:32:00,56.0,52.0,30.12,WSW,254,3.0,-999.0,86,-99.99,,,0.02,,2013-02-11 16:32:00,
2013-02-11 10:42:00,56.0,50.0,30.16,West,276,5.0,-999.0,80,-99.99,,,0.02,,2013-02-11 16:42:00,
2013-02-11 10:52:00,56.0,50.0,30.16,West,276,5.0,-999.0,80,-99.99,,,0.02,,2013-02-11 16:52:00,
2013-02-11 11:01:00,56.0,50.0,30.15,West,272,4.0,-999.0,81,-99.99,,,0.02,,2013-02-11 17:01:00,
2013-02-11 11:11:00,56.0,50.0,30.15,West,272,4.0,-999.0,81,-99.99,,,0.02,,2013-02-11 17:11:00,
2013-02-11 11:21:00,56.0,50.0,30.14,WSW,257,4.0,-999.0,81,-99.99,,,0.02,,2013-02-11 17:21:00,
2013-02-11 11:32:00,55.0,47.0,30.15,West,281,5.0,-999.0,73,-99.99,,,0.02,,2013-02-11 17:32:00,
2013-02-11 11:42:00,55.0,47.0,30.15,West,281,5.0,-999.0,73,-99.99,,,0.02,,2013-02-11 17:42:00,
2013-02-11 11:53:00,55.0,45.0,30.15,WSW,249,5.0,-999.0,69,-99.99,,,0.02,,2013-02-11 17:53:00,
2013-02-11 12:01:00,54.0,43.0,30.14,West,259,5.0,-999.0,67,-99.99,,,0.02,,2013-02-11 18:01:00,
2013-02-11 12:11:00,54.0,43.0,30.14,West,259,5.0,-999.0,67,-99.99,,,0.02,,2013-02-11 18:11:00,
2013-02-11 12:21:00,54.0,44.0,30.13,West,276,3.0,-999.0,68,-99.99,,,0.02,,2013-02-11 18:21:00,
2013-02-11 12:32:00,54.0,44.0,30.13,WSW,255,5.0,-999.0,69,-99.99,,,0.02,,2013-02-11 18:32:00,
2013-02-11 12:42:00,54.0,43.0,30.13,West,279,5.0,-999.0,67,-99.99,,,0.02,,2013-02-11 18:42:00,
2013-02-11 12:52:00,54.0,43.0,30.13,West,279,5.0,-999.0,67,-99.99,,,0.02,,2013-02-11 18:52:00,
2013-02-11 13:02:00,53.0,42.0,30.13,West,277,4.0,-999.0,66,-99.99,,,0.02,,2013-02-11 19:02:00,
2013-02-11 13:11:00,53.0,42.0,30.14,WNW,291,4.0,-999.0,66,-99.99,,,0.02,,2013-02-11 19:11:00,
2013-02-11 13:21:00,53.0,42.0,30.14,WNW,291,4.0,-999.0,66,-99.99,,,0.02,,2013-02-11 19:21:00,
2013-02-11 13:32:00,54.0,44.0,30.13,West,276,5.0,-999.0,68,-99.99,,,0.02,,2013-02-11 19:32:00,
2013-02-11 13:41:00,54.0,44.0,30.13,West,276,5.0,-999.0,68,-99.99,,,0.02,,2013-02-11 19:41:00,
2013-02-11 13:51:00,54.0,42.0,30.12,WNW,293,4.0,-999.0,64,-99.99,,,0.02,,2013-02-11 19:51:00,
2013-02-11 14:01:00,54.0,42.0,30.13,WNW,295,4.0,-999.0,64,-99.99,,,0.02,,2013-02-11 20:01:00,
2013-02-11 14:11:00,54.0,42.0,30.13,WNW,284,4.0,-999.0,63,-99.99,,,0.02,,2013-02-11 20:11:00,
2013-02-11 14:21:00,54.0,42.0,30.13,WNW,284,4.0,-999.0,63,-99.99,,,0.02,,2013-02-11 20:21:00,
2013-02-11 14:32:00,54.0,43.0,30.11,WSW,242,3.0,-999.0,66,-99.99,,,0.02,,2013-02-11 20:32:00,
2013-02-11 14:42:00,54.0,43.0,30.11,WSW,258,3.0,-999.0,66,-99.99,,,0.02,,2013-02-11 20:42:00,
2013-02-11 14:52:00,54.0,43.0,30.11,WSW,258,3.0,-999.0,66,-99.99,,,0.02,,2013-02-11 20:52:00,
2013-02-11 15:02:00,54.0,43.0,30.11,SW,226,3.0,-999.0,66,-99.99,,,0.02,,2013-02-11 21:02:00,
2013-02-11 15:11:00,54.0,43.0,30.11,West,261,3.0,-999.0,65,-99.99,,,0.02,,2013-02-11 21:11:00,
2013-02-11 15:21:00,54.0,43.0,30.11,West,261,3.0,-999.0,65,-99.99,,,0.02,,2013-02-11 21:21:00,
2013-02-11 15:32:00,54.0,43.0,30.11,NW,307,3.0,-999.0,65,-99.99,,,0.02,,2013-02-11 21:32:00,
2013-02-11 15:42:00,54.0,43.0,30.11,NW,307,3.0,-999.0,65,-99.99,,,0.02,,2013-02-11 21:42:00,
2013-02-11 15:52:00,54.0,43.0,30.10,WNW,294,3.0,-999.0,65,-99.99,,,0.02,,2013-02-11 21:52:00,
2013-02-11 16:02:00,54.0,43.0,30.10,West,266,2.0,-999.0,66,-99.99,,,0.02,,2013-02-11 22:02:00,
2013-02-11 16:11:00,54.0,43.0,30.10,West,268,2.0,-999.0,65,-99.99,,,0.02,,2013-02-11 22:11:00,
2013-02-11 16:22:00,54.0,43.0,30.10,West,268,2.0,-999.0,65,-99.99,,,0.02,,2013-02-11 22:22:00,
2013-02-11 16:32:00,54.0,42.0,30.10,West,268,1.0,-999.0,64,-99.99,,,0.02,,2013-02-11 22:32:00,
2013-02-11 16:42:00,54.0,42.0,30.10,West,268,1.0,-999.0,64,-99.99,,,0.02,,2013-02-11 22:42:00,
2013-02-11 16:52:00,54.0,42.0,30.10,West,268,1.0,-999.0,64,-99.99,,,0.02,,2013-02-11 22:52:00,
2013-02-11 17:02:00,53.0,45.0,30.09,West,268,0.0,-999.0,74,-99.99,,,0.02,,2013-02-11 23:02:00,
2013-02-11 17:11:00,53.0,45.0,30.09,West,268,0.0,-999.0,74,-99.99,,,0.02,,2013-02-11 23:11:00,
2013-02-11 17:21:00,53.0,46.0,30.10,West,268,0.0,-999.0,76,-99.99,,,0.02,,2013-02-11 23:21:00,
2013-02-11 17:32:00,51.0,45.0,30.10,West,268,0.0,-999.0,80,-99.99,,,0.02,,2013-02-11 23:32:00,
2013-02-11 17:42:00,51.0,45.0,30.10,West,268,0.0,-999.0,80,-99.99,,,0.02,,2013-02-11 23:42:00,
2013-02-11 17:52:00,50.0,46.0,30.09,West,268,0.0,-999.0,85,-99.99,,,0.02,,2013-02-11 23:52:00,
2013-02-11 18:02:00,49.0,45.0,30.11,West,268,0.0,-999.0,86,-99.99,,,0.02,,2013-02-12 00:02:00,
2013-02-11 18:11:00,49.0,45.0,30.11,West,268,0.0,-999.0,86,-99.99,,,0.02,,2013-02-12 00:11:00,
2013-02-11 18:22:00,49.0,45.0,30.11,West,268,0.0,-999.0,86,-99.99,,,0.02,,2013-02-12 00:22:00,
2013-02-11 18:32:00,49.0,45.0,30.11,West,268,0.0,-999.0,87,-99.99,,,0.00,,2013-02-12 00:32:00,
2013-02-11 18:42:00,49.0,45.0,30.11,West,268,0.0,-999.0,87,-99.99,,,0.00,,2013-02-12 00:42:00,
2013-02-11 18:52:00,48.0,45.0,30.11,West,268,0.0,-999.0,88,-99.99,,,0.00,,2013-02-12 00:52:00,
2013-02-11 19:02:00,48.0,45.0,30.11,West,268,0.0,-999.0,88,-99.99,,,0.00,,2013-02-12 01:02:00,
2013-02-11 19:11:00,48.0,45.0,30.11,West,268,0.0,-999.0,88,-99.99,,,0.00,,2013-02-12 01:11:00,
2013-02-11 19:21:00,48.0,45.0,30.10,West,268,0.0,-999.0,88,-99.99,,,0.00,,2013-02-12 01:21:00,
2013-02-11 19:32:00,48.0,45.0,30.10,West,268,0.0,-999.0,89,-99.99,,,0.00,,2013-02-12 01:32:00,
2013-02-11 19:42:00,48.0,45.0,30.10,West,268,0.0,-999.0,89,-99.99,,,0.00,,2013-02-12 01:42:00,
2013-02-11 19:51:00,48.0,45.0,30.10,West,268,0.0,-999.0,89,-99.99,,,0.00,,2013-02-12 01:51:00,
2013-02-11 20:01:00,47.0,44.0,30.12,West,268,0.0,-999.0,90,-99.99,,,0.00,,2013-02-12 02:01:00,
2013-02-11 20:11:00,47.0,45.0,30.12,West,268,0.0,-999.0,91,-99.99,,,0.00,,2013-02-12 02:11:00,
2013-02-11 20:21:00,47.0,45.0,30.12,West,268,0.0,-999.0,91,-99.99,,,0.00,,2013-02-12 02:21:00,
2013-02-11 20:32:00,46.0,43.0,30.12,West,268,0.0,-999.0,90,-99.99,,,0.00,,2013-02-12 02:32:00,
2013-02-11 20:41:00,46.0,43.0,30.12,West,268,0.0,-999.0,90,-99.99,,,0.00,,2013-02-12 02:41:00,
2013-02-11 20:52:00,46.0,44.0,30.12,West,268,0.0,-999.0,92,-99.99,,,0.00,,2013-02-12 02:52:00,
2013-02-11 21:02:00,46.0,44.0,30.13,West,268,0.0,-999.0,91,-99.99,,,0.00,,2013-02-12 03:02:00,
2013-02-11 21:11:00,47.0,44.0,30.18,WNW,286,2.0,-999.0,90,-99.99,,,0.00,,2013-02-12 03:11:00,
2013-02-11 21:21:00,47.0,44.0,30.18,WNW,286,2.0,-999.0,90,-99.99,,,0.00,,2013-02-12 03:21:00,
2013-02-11 21:32:00,47.0,45.0,30.17,WNW,286,0.0,-999.0,91,-99.99,,,0.00,,2013-02-12 03:32:00,
2013-02-11 21:41:00,46.0,44.0,30.14,WNW,286,1.0,-999.0,91,-99.99,,,0.00,,2013-02-12 03:41:00,
2013-02-11 21:52:00,46.0,44.0,30.14,WNW,286,1.0,-999.0,91,-99.99,,,0.00,,2013-02-12 03:52:00,
2013-02-11 22:01:00,45.0,43.0,30.12,WNW,286,0.0,-999.0,91,-99.99,,,0.00,,2013-02-12 04:01:00,
2013-02-11 22:11:00,45.0,43.0,30.12,WNW,286,0.0,-999.0,91,-99.99,,,0.00,,2013-02-12 04:11:00,
2013-02-11 22:21:00,45.0,43.0,30.13,WNW,285,0.0,-999.0,92,-99.99,,,0.00,,2013-02-12 04:21:00,
2013-02-11 22:31:00,45.0,43.0,30.15,WNW,286,0.0,-999.0,93,-99.99,,,0.00,,2013-02-12 04:31:00,
2013-02-11 22:41:00,45.0,43.0,30.15,WNW,286,0.0,-999.0,93,-99.99,,,0.00,,2013-02-12 04:41:00,
2013-02-11 22:52:00,45.0,43.0,30.14,NE,36,1.0,-999.0,93,-99.99,,,0.00,,2013-02-12 04:52:00,
2013-02-11 23:01:00,45.0,43.0,30.15,NE,36,0.0,-999.0,93,-99.99,,,0.00,,2013-02-12 05:01:00,
2013-02-11 23:11:00,45.0,43.0,30.15,NE,36,0.0,-999.0,93,-99.99,,,0.00,,2013-02-12 05:11:00,
2013-02-11 23:21:00,45.0,43.0,30.15,NE,36,0.0,-999.0,93,-99.99,,,0.00,,2013-02-12 05:21:00,
2013-02-11 23:31:00,45.0,43.0,30.15,NE,36,1.0,-999.0,93,-99.99,,,0.00,,2013-02-12 05:31:00,
2013-02-11 23:42:00,45.0,43.0,30.15,NE,36,1.0,-999.0,93,-99.99,,,0.00,,2013-02-12 05:42:00,
2013-02-11 23:52:00,45.0,43.0,30.14,NE,36,0.0,-999.0,93,-99.99,,,0.00,,2013-02-12 05:52:00,